South Channel Island, Victoria

1:09 AM AEST on September 02, 2015 (GMT +1000)
Rosebud West | | Change Station
CLOSE
Current Station
Personal Weather Station
Location: Rosebud West, VICTORIA
Elevation: 23 ft
Nearby Weather Stations

Elev 23 ft 38.37 °S, 144.88 °E | Updated 15 seconds ago

Clear
Clear
50.9 °F
Feels Like 50.9 °F
N
2.0
Wind Variable Wind from East
Gusts 4.7 mph

Today
High -- | Low -- °F
--% Chance of Precip.
Yesterday
High -- | Low -- °F
Precip. -- in
6:42 AM 5:59 PM
Waning Gibbous, 88% visible
Pressure 29.89 in
Visibility 6.2 miles
Clouds
Dew Point 40 °F
Humidity 67%
Rainfall 0.00 in
Snow Depth Not available.
UV 0.0 out of 12
Pollen Not available.
Air Quality Not available.
Flu Activity Not available.
METAR YMAV 011500Z AUTO 03007KT 9999 // NCD 06/04 Q1012
Pressure 29.89 in
Visibility 6.2 miles
Clouds
Dew Point 40 °F
Humidity 67%
Rainfall 0.00 in
Snow Depth Not available.
UV 0.0 out of 12
Pollen Not available.
Air Quality Not available.
Flu Activity Not available.
METAR YMAV 011500Z AUTO 03007KT 9999 // NCD 06/04 Q1012

10-Day Weather Forecast

×

Almanac

Astronomy

Sep. 02, 2015 Rise Set
Actual Time
Civil Twilight
Nautical Twilight
Astronomical Twilight
Moon
Length of Visible Light
Length of Day
Tomorrow will be .
, % of the Moon is Illuminated

Today's Extremes

Country Highs Country Lows

Community

WunderPhotos

Upload Photos

1,851,520 photos uploaded!

WunderBlogs® & News

Nearby

Air Quality

  Air Quality AQ Index Pollutant
Not available.

Snow Depth

Station Depth Elevation

Earthquake Activity

City Distance Mag. Time & Date
Minimum magnitude displayed is 2.5.

Coastal Water Temperatures

Place Temperature

Stations

Nearby Weather Stations

Station Location Temp. Windchill Dew Point Humidity Wind Precip. Elev Updated Type